Time;durP1;ratioP1;P1;durP2;ratioP2;P2;SDS_P1;SDS_P2;PMS_P1;PMS_P2;Temp;Humidity;BMP_temperature;BMP_pressure;BME280_temperature;BME280_humidity;BME280_pressure;Samples;Min_cycle;Max_cycle;Signal;HPM_P1;HPM_P2
2021/09/12 00:00:20;;;;;;;8.27;5.13;;;;;;;15.30;53.41;101313.56;6151893;23;20547;-65
2021/09/12 00:02:45;;;;;;;8.63;5.13;;;;;;;15.34;54.04;101328.22;6151960;23;20160;-65
2021/09/12 00:05:11;;;;;;;8.20;4.90;;;;;;;15.09;53.91;101293.91;6151993;23;20244;-65
2021/09/12 00:07:37;;;;;;;7.83;5.10;;;;;;;15.12;53.94;101312.56;6151185;23;20161;-65
2021/09/12 00:10:04;;;;;;;9.37;5.40;;;;;;;14.88;54.24;101281.41;6152189;23;20236;-65
2021/09/12 00:12:29;;;;;;;13.93;5.57;;;;;;;15.14;54.37;101329.63;6151344;23;20158;-65
2021/09/12 00:14:54;;;;;;;10.33;5.20;;;;;;;15.06;54.69;101322.72;6152517;23;20221;-65
2021/09/12 00:17:20;;;;;;;9.70;4.87;;;;;;;14.52;54.45;101280.91;6152971;23;20240;-65
2021/09/12 00:19:45;;;;;;;10.27;5.53;;;;;;;14.76;54.40;101323.25;6153458;23;20156;-65
2021/09/12 00:22:11;;;;;;;7.80;4.90;;;;;;;14.68;54.94;101319.09;6153676;23;20240;-65
2021/09/12 00:24:36;;;;;;;6.03;4.60;;;;;;;14.67;55.00;101332.28;6153430;23;20187;-65
2021/09/12 00:27:02;;;;;;;9.00;4.93;;;;;;;14.60;55.25;101320.53;6153652;23;20203;-65
2021/09/12 00:29:27;;;;;;;7.47;5.10;;;;;;;14.54;55.65;101322.28;6153546;23;20582;-65
2021/09/12 00:31:53;;;;;;;6.40;4.87;;;;;;;14.16;55.64;101274.78;6152083;23;20152;-65
2021/09/12 00:34:18;;;;;;;7.73;5.50;;;;;;;14.22;55.71;101294.53;6153429;23;20603;-66
2021/09/12 00:36:45;;;;;;;8.57;5.33;;;;;;;14.27;55.98;101319.09;6152876;23;20167;-65
2021/09/12 00:39:10;;;;;;;10.13;4.90;;;;;;;14.35;56.07;101337.97;6153151;23;20603;-65
2021/09/12 00:41:41;;;;;;;9.73;5.67;;;;;;;14.26;56.24;101335.06;6153371;23;20213;-65
2021/09/12 00:44:12;;;;;;;9.03;5.37;;;;;;;14.20;56.41;101313.72;6153458;23;20179;-65
2021/09/12 00:46:42;;;;;;;10.23;5.40;;;;;;;14.26;56.54;101335.06;6152833;23;20160;-65
2021/09/12 00:49:08;;;;;;;8.07;5.50;;;;;;;14.03;56.31;101292.66;6152740;23;20162;-65
2021/09/12 00:51:34;;;;;;;8.00;5.43;;;;;;;14.26;56.38;101321.13;6153314;23;20509;-65
2021/09/12 00:54:03;;;;;;;7.77;5.10;;;;;;;14.35;56.41;101334.41;6153519;23;20147;-65
2021/09/12 00:56:29;;;;;;;6.60;4.77;;;;;;;14.37;56.63;101329.16;6152659;23;20156;-65
2021/09/12 00:58:56;;;;;;;8.40;4.93;;;;;;;14.26;56.47;101311.94;6152970;23;20166;-65
2021/09/12 01:01:22;;;;;;;10.93;5.33;;;;;;;14.35;56.87;101326.81;6126752;23;20167;-65
2021/09/12 01:03:48;;;;;;;10.03;5.60;;;;;;;14.09;55.89;101307.63;6153307;23;20188;-65
2021/09/12 01:06:13;;;;;;;9.30;5.90;;;;;;;14.19;56.22;101323.28;6153332;23;20155;-65
2021/09/12 01:08:39;;;;;;;10.67;5.30;;;;;;;14.19;56.49;101335.22;6152653;23;20160;-65
2021/09/12 01:11:05;;;;;;;8.23;5.67;;;;;;;14.07;56.47;101324.78;6127272;23;20163;-65
2021/09/12 01:13:38;;;;;;;7.73;5.17;;;;;;;14.07;56.91;101335.94;6153029;23;20153;-65
2021/09/12 01:16:15;;;;;;;9.03;4.90;;;;;;;14.12;57.04;101326.25;6153125;23;20144;-65
2021/09/12 01:18:41;;;;;;;9.67;4.97;;;;;;;13.77;56.91;101288.97;6151778;23;20157;-65
2021/09/12 01:21:12;;;;;;;8.93;5.20;;;;;;;14.00;57.59;101327.78;6153351;23;20154;-65
2021/09/12 01:23:38;;;;;;;8.30;5.13;;;;;;;14.00;57.64;101335.34;6153024;23;20252;-65
2021/09/12 01:26:04;;;;;;;9.43;4.90;;;;;;;13.65;57.44;101289.69;6152796;23;20551;-65
2021/09/12 01:28:30;;;;;;;8.97;5.10;;;;;;;13.85;57.21;101309.06;6152001;23;20197;-65
2021/09/12 01:30:56;;;;;;;9.00;4.83;;;;;;;14.07;57.37;101343.50;6153341;23;20483;-65
2021/09/12 01:33:21;;;;;;;9.40;4.57;;;;;;;14.12;57.19;101345.75;6152870;23;20233;-65
2021/09/12 01:35:47;;;;;;;8.80;4.90;;;;;;;14.08;56.97;101345.09;6153034;23;20612;-65
2021/09/12 01:38:13;;;;;;;9.67;4.93;;;;;;;14.12;56.73;101346.56;6152237;23;20177;-65
2021/09/12 01:40:39;;;;;;;8.20;4.73;;;;;;;14.04;56.36;101342.38;6152333;23;20149;-65
2021/09/12 01:43:05;;;;;;;8.37;4.77;;;;;;;14.02;56.38;101349.59;6152896;23;20485;-65
2021/09/12 01:45:30;;;;;;;6.47;4.50;;;;;;;13.94;56.12;101334.31;6152794;23;20194;-65
2021/09/12 01:48:01;;;;;;;9.03;4.73;;;;;;;13.97;56.56;101345.34;6152506;23;20156;-65
2021/09/12 01:50:27;;;;;;;6.87;4.27;;;;;;;13.72;56.69;101314.56;6152385;23;20140;-66
2021/09/12 01:52:53;;;;;;;11.50;4.80;;;;;;;13.80;57.10;101346.59;6152817;23;20157;-65
2021/09/12 01:55:19;;;;;;;7.87;4.73;;;;;;;13.53;57.44;101321.00;6151360;23;20559;-65
2021/09/12 01:57:44;;;;;;;10.50;4.80;;;;;;;13.36;57.57;101307.53;6150410;23;20244;-68
2021/09/12 02:00:10;;;;;;;6.67;4.63;;;;;;;13.58;57.60;101353.91;6152622;23;20164;-65
2021/09/12 02:02:36;;;;;;;10.17;4.63;;;;;;;13.54;57.33;101344.09;6150847;23;20161;-65
2021/09/12 02:05:03;;;;;;;12.27;4.47;;;;;;;13.58;57.41;101358.72;6152826;23;20177;-65
2021/09/12 02:07:29;;;;;;;6.33;4.53;;;;;;;13.60;57.46;101356.25;6152011;23;20216;-65
2021/09/12 02:09:54;;;;;;;9.17;4.33;;;;;;;13.31;57.45;101308.84;6153085;23;20159;-65
2021/09/12 02:12:20;;;;;;;13.30;5.20;;;;;;;13.57;57.17;101362.72;6152735;23;20157;-65
2021/09/12 02:14:45;;;;;;;11.27;4.70;;;;;;;13.51;57.16;101358.88;6152005;23;20154;-65
2021/09/12 02:17:10;;;;;;;11.57;5.50;;;;;;;13.51;57.25;101353.31;6152586;23;20836;-65
2021/09/12 02:19:36;;;;;;;14.77;4.23;;;;;;;13.10;57.21;101298.22;6152078;23;20181;-65
2021/09/12 02:22:02;;;;;;;7.63;4.43;;;;;;;13.38;57.87;101346.88;6152367;23;20560;-65
2021/09/12 02:24:27;;;;;;;7.03;3.93;;;;;;;13.40;57.62;101348.00;6152316;23;20265;-65
2021/09/12 02:26:53;;;;;;;7.43;3.83;;;;;;;13.36;57.73;101350.06;6152262;23;20473;-65
2021/09/12 02:29:18;;;;;;;10.33;4.03;;;;;;;13.32;57.88;101349.38;6152462;23;20622;-65
2021/09/12 02:31:44;;;;;;;8.87;4.73;;;;;;;12.78;57.93;101275.09;6152568;23;20157;-65
2021/09/12 02:34:09;;;;;;;7.17;3.87;;;;;;;13.25;57.96;101330.06;6152498;23;20185;-67
2021/09/12 02:36:35;;;;;;;10.53;4.30;;;;;;;13.34;57.98;101337.81;6151829;23;20369;-65
2021/09/12 02:39:00;;;;;;;7.00;3.97;;;;;;;13.38;57.64;101344.09;6151791;23;20156;-65
2021/09/12 02:41:26;;;;;;;10.07;4.47;;;;;;;13.39;57.63;101334.50;6152023;23;20150;-65
2021/09/12 02:43:51;;;;;;;6.87;4.03;;;;;;;13.37;57.71;101343.28;6152490;23;20180;-65
2021/09/12 02:46:17;;;;;;;7.47;4.30;;;;;;;13.29;57.57;101311.28;6152385;23;20150;-65
2021/09/12 02:48:42;;;;;;;8.47;4.30;;;;;;;13.50;57.41;101348.94;6151539;23;20744;-65
2021/09/12 02:51:08;;;;;;;8.60;4.07;;;;;;;13.33;57.43;101319.53;6152397;23;20156;-65
2021/09/12 02:53:33;;;;;;;8.60;4.23;;;;;;;13.36;57.21;101313.09;6152142;23;20196;-65
2021/09/12 02:55:59;;;;;;;7.87;4.43;;;;;;;13.31;57.56;101302.47;6152504;23;20152;-65
2021/09/12 02:58:24;;;;;;;7.13;4.10;;;;;;;13.33;57.15;101313.97;6151413;23;20160;-65
2021/09/12 03:00:50;;;;;;;8.73;4.30;;;;;;;13.61;57.06;101349.47;6152259;23;20161;-65
2021/09/12 03:03:16;;;;;;;7.70;4.33;;;;;;;13.60;57.02;101357.06;6152337;23;20177;-65
2021/09/12 03:05:41;;;;;;;6.83;4.10;;;;;;;13.60;57.12;101357.06;6152173;23;20730;-65
2021/09/12 03:08:07;;;;;;;7.40;4.17;;;;;;;13.63;57.12;101361.75;6151922;23;20187;-65
2021/09/12 03:10:32;;;;;;;6.40;3.90;;;;;;;13.67;56.90;101364.44;6152137;23;20153;-65
2021/09/12 03:12:58;;;;;;;7.47;4.00;;;;;;;13.24;57.00;101294.31;6152064;23;20153;-65
2021/09/12 03:15:23;;;;;;;7.20;4.17;;;;;;;13.70;56.88;101363.56;6150488;23;20248;-65
2021/09/12 03:17:49;;;;;;;9.33;4.40;;;;;;;13.70;57.28;101366.34;6151606;23;20153;-65
2021/09/12 03:20:14;;;;;;;7.90;4.47;;;;;;;13.75;57.16;101365.84;6150468;23;20166;-65
2021/09/12 03:22:40;;;;;;;11.93;4.20;;;;;;;13.77;57.43;101366.19;6152153;23;20164;-65
2021/09/12 03:25:06;;;;;;;9.43;4.10;;;;;;;13.56;56.83;101341.63;6151859;23;20240;-65
2021/09/12 03:27:32;;;;;;;8.20;4.40;;;;;;;13.61;56.60;101347.47;6151297;23;20201;-65
2021/09/12 03:29:58;;;;;;;8.93;4.37;;;;;;;13.74;56.87;101361.50;6150841;23;20158;-65
2021/09/12 03:32:23;;;;;;;7.73;4.40;;;;;;;13.78;57.39;101371.31;6150282;23;20240;-65
2021/09/12 03:34:49;;;;;;;8.03;4.10;;;;;;;13.77;57.61;101363.38;6152039;23;20150;-65
2021/09/12 03:37:15;;;;;;;12.43;4.40;;;;;;;13.83;57.63;101370.78;6152051;23;20160;-65
2021/09/12 03:39:40;;;;;;;5.80;3.70;;;;;;;13.78;55.73;101373.34;6151417;23;20185;-65
2021/09/12 03:42:06;;;;;;;8.77;3.80;;;;;;;13.68;55.85;101366.78;6151865;23;20157;-65
2021/09/12 03:44:31;;;;;;;6.73;4.20;;;;;;;13.63;55.83;101364.53;6151942;23;20588;-65
2021/09/12 03:46:57;;;;;;;12.33;4.20;;;;;;;13.54;55.60;101358.00;6150625;23;20173;-65
2021/09/12 03:49:22;;;;;;;9.00;4.37;;;;;;;13.43;55.67;101360.28;6150445;23;20178;-65
2021/09/12 03:51:48;;;;;;;8.73;4.67;;;;;;;13.02;56.38;101326.66;6154138;23;20549;-65
2021/09/12 03:54:14;;;;;;;8.63;4.30;;;;;;;12.91;56.87;101326.84;6153824;23;20157;-65
2021/09/12 03:56:39;;;;;;;10.50;4.37;;;;;;;13.15;57.17;101363.69;6153461;23;20623;-65
2021/09/12 03:59:05;;;;;;;9.07;4.17;;;;;;;13.05;57.48;101356.38;6153275;23;20233;-65
2021/09/12 04:01:30;;;;;;;8.03;4.73;;;;;;;12.79;57.42;101332.28;6153677;23;20544;-66
2021/09/12 04:03:56;;;;;;;8.47;4.33;;;;;;;12.94;57.36;101367.72;6153927;23;20509;-65
2021/09/12 04:06:21;;;;;;;8.33;4.77;;;;;;;12.54;57.61;101316.13;6153673;23;20160;-65
2021/09/12 04:08:47;;;;;;;8.80;4.10;;;;;;;12.82;57.62;101371.13;6153177;23;20176;-65
2021/09/12 04:11:12;;;;;;;10.00;4.70;;;;;;;12.77;57.62;101368.88;6154094;23;20654;-65
2021/09/12 04:13:38;;;;;;;10.77;5.27;;;;;;;12.74;57.54;101377.28;6153417;23;20492;-65
2021/09/12 04:16:04;;;;;;;10.37;4.67;;;;;;;12.57;58.20;101361.75;6153769;23;20181;-65
2021/09/12 04:18:29;;;;;;;8.50;4.87;;;;;;;12.59;58.63;101387.91;6152697;23;20156;-65
2021/09/12 04:20:55;;;;;;;7.73;4.80;;;;;;;12.56;58.72;101393.56;6153649;23;20164;-65
2021/09/12 04:23:20;;;;;;;9.80;4.77;;;;;;;12.60;58.58;101399.84;6154101;23;20168;-65
2021/09/12 04:25:46;;;;;;;11.43;4.73;;;;;;;12.55;58.92;101389.22;6153725;23;20238;-64
2021/09/12 04:28:11;;;;;;;7.63;4.60;;;;;;;12.43;59.08;101382.28;6152608;23;20672;-64
2021/09/12 04:30:37;;;;;;;8.63;4.90;;;;;;;12.51;59.36;101397.59;6152947;23;20495;-64
2021/09/12 04:33:02;;;;;;;11.53;4.80;;;;;;;12.33;59.29;101368.56;6153727;23;20238;-64
2021/09/12 04:35:28;;;;;;;7.47;4.30;;;;;;;12.58;58.90;101397.47;6151731;23;20153;-64
2021/09/12 04:37:53;;;;;;;10.87;5.20;;;;;;;12.68;58.59;101395.69;6152844;23;20161;-65
2021/09/12 04:40:19;;;;;;;9.90;4.77;;;;;;;12.77;58.63;101398.69;6153485;23;20232;-64
2021/09/12 04:42:44;;;;;;;14.53;5.33;;;;;;;12.87;58.84;101401.22;6152673;23;20695;-64
2021/09/12 04:45:10;;;;;;;11.33;4.50;;;;;;;12.99;58.38;101403.41;6151837;23;20240;-64
2021/09/12 04:47:36;;;;;;;8.70;4.77;;;;;;;13.11;58.38;101410.31;6152865;23;20157;-64
2021/09/12 04:50:01;;;;;;;8.53;4.50;;;;;;;13.17;58.06;101412.16;6153511;23;20150;-63
2021/09/12 04:52:27;;;;;;;8.17;4.70;;;;;;;13.26;58.20;101414.34;6153086;23;20150;-63
2021/09/12 04:54:53;;;;;;;8.73;4.80;;;;;;;13.26;58.04;101397.63;6153586;23;20159;-63
2021/09/12 04:57:18;;;;;;;7.30;4.47;;;;;;;13.29;58.58;101402.34;6151498;23;20631;-63
2021/09/12 04:59:44;;;;;;;10.80;4.67;;;;;;;13.48;58.57;101407.09;6152518;23;20153;-63
2021/09/12 05:02:10;;;;;;;7.73;4.57;;;;;;;13.57;58.08;101405.25;6153226;23;20161;-63
2021/09/12 05:04:35;;;;;;;7.67;4.57;;;;;;;13.71;58.09;101415.28;6153044;23;20408;-63
2021/09/12 05:07:01;;;;;;;7.20;4.60;;;;;;;13.80;58.22;101410.69;6153055;23;20181;-63
2021/09/12 05:09:26;;;;;;;8.37;4.37;;;;;;;13.91;58.13;101404.84;6151217;23;20159;-63
2021/09/12 05:11:52;;;;;;;8.03;4.60;;;;;;;14.08;57.67;101409.19;6153005;23;20229;-63
2021/09/12 05:14:17;;;;;;;7.93;4.50;;;;;;;14.14;57.74;101413.78;6152885;23;20156;-63
2021/09/12 05:16:42;;;;;;;9.40;4.77;;;;;;;14.22;57.65;101406.03;6152721;23;20215;-63
2021/09/12 05:19:08;;;;;;;11.17;5.13;;;;;;;14.33;57.82;101407.34;6152362;23;20153;-63
2021/09/12 05:21:33;;;;;;;13.97;4.80;;;;;;;14.41;57.93;101394.78;6152883;23;20165;-63
2021/09/12 05:23:59;;;;;;;11.73;4.70;;;;;;;14.54;58.14;101397.59;6153355;23;20547;-63
2021/09/12 05:26:24;;;;;;;15.47;5.20;;;;;;;14.40;58.25;101373.69;6152636;23;20210;-63
2021/09/12 05:28:50;;;;;;;10.17;5.03;;;;;;;14.47;58.47;101370.72;6150994;23;20155;-63
2021/09/12 05:31:15;;;;;;;11.53;4.63;;;;;;;14.70;58.24;101389.19;6152990;23;20160;-63
2021/09/12 05:33:41;;;;;;;10.50;5.07;;;;;;;14.92;58.49;101412.47;6152796;23;20160;-63
2021/09/12 05:36:07;;;;;;;12.37;4.83;;;;;;;15.01;58.44;101418.94;6152914;23;20179;-63
2021/09/12 05:38:32;;;;;;;10.30;5.00;;;;;;;15.11;58.77;101417.84;6150072;23;20621;-63
2021/09/12 05:40:58;;;;;;;12.17;5.47;;;;;;;14.85;59.33;101362.44;6152610;23;20165;-63
2021/09/12 05:43:23;;;;;;;11.83;5.00;;;;;;;15.27;59.07;101422.56;6152461;23;20154;-63
2021/09/12 05:45:49;;;;;;;11.00;5.03;;;;;;;15.35;59.21;101424.72;6153204;23;20154;-63
2021/09/12 05:48:14;;;;;;;9.00;5.27;;;;;;;15.20;60.32;101408.81;6152261;23;20588;-63
2021/09/12 05:50:40;;;;;;;10.67;5.33;;;;;;;15.47;61.06;101426.75;6152487;23;20164;-63
2021/09/12 05:53:06;;;;;;;10.63;5.43;;;;;;;15.37;61.20;101388.75;6152866;23;20150;-64
2021/09/12 05:55:32;;;;;;;12.93;5.33;;;;;;;15.63;61.85;101418.25;6152631;23;20175;-63
2021/09/12 05:57:58;;;;;;;12.27;5.30;;;;;;;15.92;60.46;101432.88;6152241;23;20547;-64
2021/09/12 06:00:23;;;;;;;9.80;5.30;;;;;;;16.07;60.67;101431.19;6151840;23;20161;-63
2021/09/12 06:02:49;;;;;;;13.47;5.00;;;;;;;15.99;60.45;101396.28;6150325;23;20168;-63
2021/09/12 06:05:14;;;;;;;11.03;5.33;;;;;;;16.34;60.32;101423.03;6152389;23;20182;-63
2021/09/12 06:07:40;;;;;;;10.37;5.00;;;;;;;16.28;60.22;101398.88;6151834;23;20279;-63
2021/09/12 06:10:06;;;;;;;11.30;5.17;;;;;;;16.61;60.28;101422.53;6150551;23;20157;-64
2021/09/12 06:12:32;;;;;;;9.00;5.27;;;;;;;16.55;62.00;101436.31;6124991;23;20167;-63
2021/09/12 06:14:57;;;;;;;10.70;5.47;;;;;;;16.41;62.44;101424.84;6152039;23;20155;-63
2021/09/12 06:17:23;;;;;;;8.73;5.10;;;;;;;16.28;62.24;101401.69;6151631;23;20468;-63
2021/09/12 06:19:49;;;;;;;0.00;0.00;;;;;;;16.53;60.25;101430.41;6151976;23;20598;-63
2021/09/12 06:22:14;;;;;;;7.90;4.87;;;;;;;16.62;59.85;101426.13;6151905;23;20161;-63
2021/09/12 06:24:40;;;;;;;9.43;4.80;;;;;;;16.42;59.02;101378.84;6151707;23;20195;-64
2021/09/12 06:27:05;;;;;;;10.53;4.87;;;;;;;16.83;58.90;101428.16;6152022;23;20272;-64
2021/09/12 06:29:31;;;;;;;11.73;4.93;;;;;;;16.83;58.56;101410.09;6151341;23;20149;-63
2021/09/12 06:31:56;;;;;;;14.27;4.70;;;;;;;16.98;58.15;101410.34;6151937;23;20212;-63
2021/09/12 06:34:22;;;;;;;8.30;4.70;;;;;;;17.21;57.03;101418.28;6150549;23;20161;-64
2021/09/12 06:36:47;;;;;;;9.83;5.10;;;;;;;17.36;56.31;101417.25;6151775;23;20228;-64
2021/09/12 06:39:14;;;;;;;9.93;4.60;;;;;;;17.56;56.19;101425.31;6151113;23;20153;-64
2021/09/12 06:41:39;;;;;;;14.30;4.90;;;;;;;17.42;55.04;101384.63;6151602;23;20157;-64
2021/09/12 06:44:05;;;;;;;11.30;4.57;;;;;;;17.70;54.84;101421.19;6151665;23;20670;-64
2021/09/12 06:46:30;;;;;;;9.53;4.57;;;;;;;17.86;53.66;101418.88;6152179;23;20161;-64
2021/09/12 06:48:56;;;;;;;9.17;4.50;;;;;;;17.88;53.45;101400.34;6151735;23;20158;-64
2021/09/12 06:51:22;;;;;;;7.63;4.60;;;;;;;17.83;53.18;101380.56;6152196;23;20216;-64
2021/09/12 06:53:47;;;;;;;11.00;4.67;;;;;;;18.22;52.62;101421.75;6152176;23;20173;-64
2021/09/12 06:56:12;;;;;;;10.77;4.73;;;;;;;18.39;52.16;101425.88;6152287;23;20155;-64
2021/09/12 06:58:38;;;;;;;10.50;4.47;;;;;;;18.59;52.03;101426.19;6151181;23;20153;-64
2021/09/12 07:01:03;;;;;;;10.43;4.17;;;;;;;18.72;51.61;101431.66;6151796;23;20596;-64
2021/09/12 07:03:29;;;;;;;11.70;4.40;;;;;;;18.89;50.82;101432.88;6150615;23;20523;-64
2021/09/12 07:05:55;;;;;;;8.93;4.50;;;;;;;19.05;50.00;101440.97;6152359;23;20162;-64
2021/09/12 07:08:20;;;;;;;8.03;4.50;;;;;;;18.84;49.94;101406.19;6151809;23;20478;-64
2021/09/12 07:10:46;;;;;;;8.33;4.47;;;;;;;19.15;50.70;101440.50;6151966;23;20490;-64
2021/09/12 07:13:12;;;;;;;8.40;4.47;;;;;;;19.37;50.61;101443.88;6152091;23;20203;-64
2021/09/12 07:15:37;;;;;;;10.17;4.50;;;;;;;19.55;50.25;101445.84;6152036;23;20146;-64
2021/09/12 07:18:03;;;;;;;7.80;4.57;;;;;;;19.71;49.77;101434.22;6151715;23;20190;-64
2021/09/12 07:20:29;;;;;;;7.57;4.47;;;;;;;19.86;49.18;101438.66;6151375;23;20529;-64
2021/09/12 07:22:55;;;;;;;11.57;4.53;;;;;;;19.93;48.37;101435.53;6152477;23;20240;-64
2021/09/12 07:25:21;;;;;;;7.33;4.23;;;;;;;20.00;46.07;101431.59;6154130;23;20185;-64
2021/09/12 07:27:46;;;;;;;9.43;4.00;;;;;;;20.07;43.08;101439.66;6153220;23;20197;-64
2021/09/12 07:30:13;;;;;;;8.87;4.40;;;;;;;20.03;42.71;101439.06;6152691;23;20162;-65
2021/09/12 07:32:40;;;;;;;10.47;4.50;;;;;;;20.03;42.81;101427.81;6151320;23;20150;-64
2021/09/12 07:35:06;;;;;;;10.50;4.33;;;;;;;20.29;43.18;101435.34;6148146;23;20563;-64
2021/09/12 07:37:32;;;;;;;8.53;4.53;;;;;;;20.31;44.17;101429.22;6147743;23;20153;-64
2021/09/12 07:39:57;;;;;;;10.00;4.77;;;;;;;20.45;44.18;101425.66;6150962;23;20154;-64
2021/09/12 07:42:23;;;;;;;11.23;4.33;;;;;;;20.32;43.99;101394.19;6151674;23;20153;-64
2021/09/12 07:44:49;;;;;;;10.40;4.20;;;;;;;20.53;44.49;101421.22;6140681;23;20189;-64
2021/09/12 07:47:15;;;;;;;12.43;4.47;;;;;;;20.62;44.51;101438.81;6149772;23;20216;-64
2021/09/12 07:49:41;;;;;;;10.33;4.00;;;;;;;20.78;44.66;101435.53;6150002;23;20165;-64
2021/09/12 07:52:07;;;;;;;8.47;4.13;;;;;;;20.95;44.35;101430.25;6149079;23;20535;-64
2021/09/12 07:54:32;;;;;;;10.37;4.60;;;;;;;21.05;43.94;101420.47;6149190;23;20149;-64
2021/09/12 07:56:57;;;;;;;8.53;4.20;;;;;;;21.22;41.84;101422.31;6150539;23;20236;-64
2021/09/12 07:59:23;;;;;;;7.67;4.37;;;;;;;21.23;42.57;101418.22;6150743;23;20157;-65
2021/09/12 08:01:48;;;;;;;7.00;4.30;;;;;;;21.43;42.71;101417.50;6151573;23;20636;-65
2021/09/12 08:04:14;;;;;;;9.80;4.43;;;;;;;21.69;42.88;101429.78;6150561;23;20181;-64
2021/09/12 08:06:39;;;;;;;10.97;4.47;;;;;;;21.82;42.49;101431.00;6150912;23;20480;-64
2021/09/12 08:09:05;;;;;;;11.50;4.37;;;;;;;21.82;42.37;101421.75;6151236;23;20574;-64
2021/09/12 08:11:30;;;;;;;6.90;4.40;;;;;;;21.89;42.46;101426.97;6151572;23;20157;-64
2021/09/12 08:13:56;;;;;;;8.40;4.03;;;;;;;21.96;42.72;101409.66;6151180;23;20149;-64
2021/09/12 08:16:21;;;;;;;10.00;4.90;;;;;;;21.94;42.13;101424.25;6147760;23;20161;-64
2021/09/12 08:18:47;;;;;;;13.20;5.10;;;;;;;21.99;42.14;101412.25;6149633;23;20212;-64
2021/09/12 08:21:12;;;;;;;7.97;4.60;;;;;;;22.22;41.78;101428.22;6151575;23;20643;-64
2021/09/12 08:23:38;;;;;;;13.73;6.20;;;;;;;22.35;38.53;101423.00;6125692;23;20224;-65
2021/09/12 08:26:03;;;;;;;13.80;5.30;;;;;;;22.22;38.54;101388.69;6150936;23;20162;-64
2021/09/12 08:28:29;;;;;;;10.87;5.40;;;;;;;22.42;38.24;101414.09;6151687;23;20160;-64
2021/09/12 08:30:55;;;;;;;8.57;5.13;;;;;;;22.54;39.23;101398.09;6152319;23;20509;-65
2021/09/12 08:33:21;;;;;;;13.13;5.93;;;;;;;22.78;39.06;101415.59;6151779;23;20185;-64
2021/09/12 08:35:46;;;;;;;10.93;5.13;;;;;;;22.90;37.17;101405.94;6151563;23;20169;-65
2021/09/12 08:38:12;;;;;;;8.37;5.27;;;;;;;23.02;36.34;101405.56;6151329;23;20150;-64
2021/09/12 08:40:38;;;;;;;10.50;5.07;;;;;;;23.09;36.65;101387.38;6151961;23;20547;-65
2021/09/12 08:43:06;;;;;;;13.03;5.90;;;;;;;23.35;34.90;101399.44;6151081;23;20244;-65
2021/09/12 08:45:32;;;;;;;14.57;5.70;;;;;;;23.43;35.09;101397.72;6150060;23;20188;-64
2021/09/12 08:47:59;;;;;;;11.00;5.40;;;;;;;23.68;34.98;101402.50;6150367;23;20481;-65
2021/09/12 08:50:24;;;;;;;14.53;5.37;;;;;;;23.69;33.57;101368.06;6151241;23;20241;-65
2021/09/12 08:52:50;;;;;;;10.17;5.47;;;;;;;24.02;33.80;101392.97;6151374;23;20592;-65
2021/09/12 08:55:15;;;;;;;14.30;5.30;;;;;;;24.17;33.18;101387.91;6150246;23;20146;-65
2021/09/12 08:57:49;;;;;;;12.97;5.43;;;;;;;24.32;32.25;101385.66;6150016;23;20616;-65
2021/09/12 09:00:24;;;;;;;10.90;4.90;;;;;;;24.48;32.63;101382.88;6150788;23;20160;-65
2021/09/12 09:02:56;;;;;;;11.00;5.50;;;;;;;24.67;32.67;101391.72;6149227;23;20232;-65
2021/09/12 09:05:33;;;;;;;10.17;5.63;;;;;;;24.67;31.68;101386.06;6149837;23;20260;-65
2021/09/12 09:08:07;;;;;;;12.20;5.20;;;;;;;24.57;30.50;101376.97;6149734;23;20157;-65
2021/09/12 09:10:46;;;;;;;11.80;5.63;;;;;;;24.67;30.98;101386.06;6152054;23;20154;-65
2021/09/12 09:13:34;;;;;;;14.23;5.67;;;;;;;24.88;30.90;101385.31;6151756;23;20505;-65
2021/09/12 09:16:02;;;;;;;12.00;5.60;;;;;;;25.00;30.61;101381.22;6152276;23;20253;-65
2021/09/12 09:18:45;;;;;;;11.60;5.70;;;;;;;25.18;30.63;101375.03;6149877;23;20495;-65
2021/09/12 09:21:29;;;;;;;14.43;5.90;;;;;;;25.43;30.27;101373.25;6151851;23;20225;-65
2021/09/12 09:24:15;;;;;;;8.93;5.50;;;;;;;25.55;30.61;101375.56;6151895;23;20170;-65
2021/09/12 09:26:42;;;;;;;10.50;5.23;;;;;;;25.71;30.97;101366.25;6151593;23;20204;-65
2021/09/12 09:29:08;;;;;;;12.97;5.50;;;;;;;25.59;31.12;101329.88;6148616;23;20152;-65
2021/09/12 09:31:34;;;;;;;8.07;5.60;;;;;;;25.71;30.22;101366.25;6151363;23;20204;-65
2021/09/12 09:34:19;;;;;;;11.30;6.00;;;;;;;25.77;30.52;101363.38;6151347;23;20149;-65
2021/09/12 09:36:47;;;;;;;11.13;5.70;;;;;;;25.88;29.72;101361.28;6151396;23;20316;-65
2021/09/12 09:39:15;;;;;;;10.17;5.20;;;;;;;26.06;30.20;101355.03;6151507;23;20675;-65
2021/09/12 09:41:41;;;;;;;14.53;5.07;;;;;;;25.91;29.57;101334.72;6149400;23;20237;-65
2021/09/12 09:44:09;;;;;;;11.10;5.03;;;;;;;26.30;29.34;101343.84;6150856;23;20220;-65
2021/09/12 09:46:43;;;;;;;17.40;5.30;;;;;;;26.33;29.51;101351.34;6150771;23;20165;-65
2021/09/12 09:49:29;;;;;;;11.43;5.07;;;;;;;26.33;29.78;101348.50;6150802;23;20212;-65
2021/09/12 09:52:01;;;;;;;11.77;5.40;;;;;;;26.31;30.39;101321.91;6140200;23;20215;-65
2021/09/12 09:54:33;;;;;;;11.00;4.90;;;;;;;26.50;29.27;101345.53;6149330;23;20225;-65
2021/09/12 09:57:00;;;;;;;11.07;5.10;;;;;;;26.58;29.40;101343.72;6150742;23;20149;-65
2021/09/12 09:59:27;;;;;;;11.63;4.97;;;;;;;26.42;28.36;101304.78;6150091;23;20504;-65
2021/09/12 10:01:55;;;;;;;9.00;5.07;;;;;;;26.53;28.26;101302.66;6151579;23;20666;-65
2021/09/12 10:04:23;;;;;;;12.50;4.80;;;;;;;26.94;28.07;101326.16;6151184;23;20610;-65
2021/09/12 10:06:49;;;;;;;11.77;4.73;;;;;;;27.06;28.21;101324.75;6150978;23;20158;-65
2021/09/12 10:09:17;;;;;;;8.83;4.90;;;;;;;26.95;28.66;101319.16;6151030;23;20157;-65
2021/09/12 10:11:51;;;;;;;9.20;4.77;;;;;;;27.01;27.96;101307.72;6151226;23;20157;-65
2021/09/12 10:14:24;;;;;;;12.40;5.10;;;;;;;27.07;27.68;101320.59;6151289;23;20189;-65
2021/09/12 10:16:50;;;;;;;7.20;4.80;;;;;;;27.23;27.62;101316.09;6151454;23;20520;-65
2021/09/12 10:19:36;;;;;;;10.60;4.60;;;;;;;27.57;27.08;101315.22;6150899;23;20181;-65
2021/09/12 10:22:08;;;;;;;9.53;4.77;;;;;;;27.70;26.02;101308.88;6151516;23;20149;-65
2021/09/12 10:24:34;;;;;;;11.97;4.53;;;;;;;27.83;25.74;101315.47;6151314;23;20170;-65
2021/09/12 10:27:35;;;;;;;10.93;4.37;;;;;;;27.97;25.28;101313.50;6151293;23;20731;-64
2021/09/12 10:30:21;;;;;;;13.32;4.75;;;;;;;28.04;27.07;101316.50;6151524;23;20149;-65
2021/09/12 10:32:48;;;;;;;10.25;4.85;;;;;;;28.05;26.83;101318.03;6151473;23;20146;-65
2021/09/12 10:35:20;;;;;;;7.57;4.43;;;;;;;28.16;26.17;101300.03;6151557;23;20149;-65
2021/09/12 10:38:08;;;;;;;11.98;4.75;;;;;;;28.35;24.79;101303.69;6151102;23;20176;-65
2021/09/12 10:40:46;;;;;;;10.30;4.72;;;;;;;28.68;24.05;101297.50;6150371;23;20157;-65
2021/09/12 10:43:27;;;;;;;8.27;4.55;;;;;;;28.67;25.01;101298.81;6151000;23;20157;-65
2021/09/12 10:46:02;;;;;;;11.63;4.80;;;;;;;28.65;25.33;101285.09;6151469;23;20212;-65
2021/09/12 10:48:44;;;;;;;12.35;4.75;;;;;;;28.67;25.35;101290.25;6150731;23;20149;-65
2021/09/12 10:51:10;;;;;;;11.80;4.70;;;;;;;28.75;24.54;101291.94;6151841;23;20145;-65
2021/09/12 10:53:47;;;;;;;9.93;5.20;;;;;;;28.78;24.13;101288.00;6151462;23;20153;-65
2021/09/12 10:56:31;;;;;;;12.73;5.18;;;;;;;29.14;24.67;101294.16;6151504;23;20558;-65
2021/09/12 10:59:11;;;;;;;9.85;4.63;;;;;;;29.35;23.74;101280.78;6124658;23;20220;-65
2021/09/12 11:01:41;;;;;;;7.72;4.55;;;;;;;29.47;24.58;101288.59;6150804;23;20140;-65
2021/09/12 11:04:09;;;;;;;10.30;4.53;;;;;;;29.39;24.21;101292.66;6151286;23;20177;-65
2021/09/12 11:06:37;;;;;;;12.30;4.90;;;;;;;29.71;23.65;101281.94;6149669;23;20561;-66
2021/09/12 11:09:05;;;;;;;10.15;4.60;;;;;;;29.69;22.98;101276.00;6151244;23;20154;-66
2021/09/12 11:11:31;;;;;;;11.43;5.07;;;;;;;29.83;24.11;101266.13;6151270;23;20154;-65
2021/09/12 11:13:58;;;;;;;12.52;4.75;;;;;;;29.95;24.62;101247.41;6151040;23;20150;-65
2021/09/12 11:16:25;;;;;;;11.77;4.70;;;;;;;30.27;24.15;101268.78;6150678;23;20604;-65
2021/09/12 11:18:58;;;;;;;7.78;5.05;;;;;;;30.46;23.25;101265.75;6151026;23;20229;-65
2021/09/12 11:21:24;;;;;;;14.18;4.65;;;;;;;30.70;23.31;101260.50;6151021;23;20161;-65